Wrightsville, Ohio
Current Conditions -  °F | °C
As of 7:55 PM on Tuesday 21 Oct 2014 (Local Time) from KFGX Reporting Station
Overcast Overcast  
Wind Chill: 48°   Ceiling: 2500
Heat Index: 49°   Visibility: 10mi
Dew Point: 43°   Wind: 5mph
Humidity: 78%   Direction: 340°NNW
Pressure: 30.12"   Gusts: NA
Location:  38.7042°N, 83.6081°W
Report Text: KFGX 212355Z AUTO 34004KT 10SM BKN025 BKN031 OVC050 10/06 A3012 RMK AO2 T00960060 10117 20096
Loading
Personal Weather Stations






























Interactive Weather Map
Tropical Storm Tracking
New forecast layout! Learn more

10-Day Weather Forecast

Advertisements
Track Severe Weather on mobile